createdAt,value
2023-02-12T00:01:21.971Z,33.33
2023-02-12T00:03:49.261Z,30.80
2023-02-12T00:06:16.311Z,31.80
2023-02-12T00:08:43.689Z,37.23
2023-02-12T00:11:19.821Z,34.33
2023-02-12T00:13:47.106Z,34.50
2023-02-12T00:16:19.689Z,30.80
2023-02-12T00:18:46.760Z,32.57
2023-02-12T00:21:14.060Z,32.13
2023-02-12T00:23:41.548Z,32.43
2023-02-12T00:26:09.866Z,33.33
2023-02-12T00:28:39.486Z,31.70
2023-02-12T00:31:11.610Z,33.43
2023-02-12T00:33:38.570Z,32.93
2023-02-12T00:36:08.135Z,32.67
2023-02-12T00:38:35.675Z,32.33
2023-02-12T00:41:03.567Z,34.07
2023-02-12T00:43:30.356Z,34.00
2023-02-12T00:45:57.583Z,32.40
2023-02-12T00:48:24.619Z,32.43
2023-02-12T00:50:51.369Z,33.97
2023-02-12T00:53:18.203Z,31.20
2023-02-12T00:55:45.189Z,32.93
2023-02-12T00:58:12.295Z,33.33
2023-02-12T01:00:39.056Z,32.50
2023-02-12T01:03:06.019Z,30.47
2023-02-12T01:05:33.451Z,28.83
2023-02-12T01:08:00.644Z,29.63
2023-02-12T01:10:27.961Z,31.20
2023-02-12T01:12:54.922Z,31.47
2023-02-12T01:15:22.014Z,29.87
2023-02-12T01:17:51.118Z,31.10
2023-02-12T01:20:18.635Z,31.37
2023-02-12T01:22:45.709Z,33.30
2023-02-12T01:25:13.711Z,33.53
2023-02-12T01:27:40.813Z,29.70
2023-02-12T01:30:10.191Z,31.13
2023-02-12T01:32:36.922Z,34.43
2023-02-12T01:35:04.383Z,32.73
2023-02-12T01:37:31.362Z,33.20
2023-02-12T01:39:58.097Z,32.73
2023-02-12T01:42:24.837Z,29.87
2023-02-12T01:45:30.343Z,38.57
2023-02-12T01:48:00.575Z,36.03
2023-02-12T01:50:27.752Z,39.07
2023-02-12T01:52:57.752Z,35.23
2023-02-12T01:55:24.779Z,38.23
2023-02-12T01:57:51.890Z,32.87
2023-02-12T02:00:22.204Z,35.20
2023-02-12T02:02:52.714Z,38.67
2023-02-12T02:05:45.301Z,35.10
2023-02-12T02:08:12.946Z,37.83
2023-02-12T02:10:39.756Z,35.00
2023-02-12T02:13:25.813Z,37.57
2023-02-12T02:15:57.377Z,39.03
2023-02-12T02:18:37.761Z,39.73
2023-02-12T02:21:21.408Z,38.17
2023-02-12T02:23:54.202Z,38.53
2023-02-12T02:26:50.908Z,42.93
2023-02-12T02:29:29.616Z,42.23
2023-02-12T02:32:23.878Z,43.80
2023-02-12T02:35:00.869Z,37.77
2023-02-12T02:37:33.277Z,35.90
2023-02-12T02:40:19.017Z,42.67
2023-02-12T02:43:04.568Z,41.07
2023-02-12T02:45:31.243Z,40.47
2023-02-12T02:48:12.847Z,38.97
2023-02-12T02:50:43.800Z,38.37
2023-02-12T02:53:14.414Z,41.63
2023-02-12T02:55:47.747Z,38.97
2023-02-12T02:58:20.302Z,44.97
2023-02-12T03:01:00.535Z,40.83
2023-02-12T03:03:30.424Z,48.50
2023-02-12T03:06:07.632Z,38.87
2023-02-12T03:08:39.292Z,41.33
2023-02-12T03:11:28.439Z,38.53
2023-02-12T03:14:04.122Z,44.83
2023-02-12T03:16:38.291Z,47.27
2023-02-12T03:19:11.978Z,43.83
2023-02-12T03:22:07.397Z,45.03
2023-02-12T03:24:41.249Z,44.57
2023-02-12T03:27:27.970Z,51.87
2023-02-12T03:29:54.905Z,49.30
2023-02-12T03:32:51.058Z,52.60
2023-02-12T03:35:32.833Z,57.20
2023-02-12T03:38:35.970Z,46.93
2023-02-12T03:41:32.499Z,49.80
2023-02-12T03:44:17.878Z,49.23
2023-02-12T03:47:22.338Z,49.50
2023-02-12T03:49:53.291Z,45.60
2023-02-12T03:52:20.178Z,49.37
2023-02-12T03:54:47.023Z,51.20
2023-02-12T03:57:19.369Z,49.27
2023-02-12T03:59:48.182Z,48.83
2023-02-12T04:02:17.024Z,49.23
2023-02-12T04:04:45.202Z,47.37
2023-02-12T04:07:12.856Z,50.83
2023-02-12T04:09:39.749Z,49.83
2023-02-12T04:12:09.482Z,52.27
2023-02-12T04:14:54.238Z,52.43
2023-02-12T04:17:30.068Z,55.97
2023-02-12T04:20:10.373Z,67.63
2023-02-12T04:22:53.959Z,65.67
2023-02-12T04:25:53.068Z,64.00
2023-02-12T04:28:28.743Z,62.73
2023-02-12T04:31:20.940Z,66.63
2023-02-12T04:34:09.637Z,58.47
2023-02-12T04:36:54.149Z,65.33
2023-02-12T04:39:27.351Z,63.33
2023-02-12T04:41:54.443Z,76.00
2023-02-12T04:44:26.927Z,63.70
2023-02-12T04:46:53.855Z,67.30
2023-02-12T04:49:22.533Z,71.17
2023-02-12T04:51:49.951Z,70.47
2023-02-12T04:54:18.362Z,65.33
2023-02-12T04:56:46.058Z,67.60
2023-02-12T04:59:12.960Z,74.13
2023-02-12T05:01:40.683Z,68.23
2023-02-12T05:04:08.365Z,73.47
2023-02-12T05:06:36.245Z,69.70
2023-02-12T05:09:03.980Z,77.57
2023-02-12T05:11:30.715Z,63.67
2023-02-12T05:13:57.792Z,69.07
2023-02-12T05:16:24.967Z,69.23
2023-02-12T05:18:51.710Z,69.40
2023-02-12T05:21:18.458Z,73.97
2023-02-12T05:23:45.250Z,62.87
2023-02-12T05:26:20.793Z,59.17
2023-02-12T05:28:47.970Z,63.50
2023-02-12T05:31:20.781Z,61.70
2023-02-12T05:33:49.342Z,61.83
2023-02-12T05:36:18.749Z,56.37
2023-02-12T05:38:45.893Z,57.63
2023-02-12T05:41:15.381Z,58.50
2023-02-12T05:43:42.589Z,71.30
2023-02-12T05:46:10.057Z,67.17
2023-02-12T05:48:37.368Z,65.23
2023-02-12T05:51:06.738Z,63.10
2023-02-12T05:53:33.806Z,62.47
2023-02-12T05:56:15.456Z,65.43
2023-02-12T05:58:45.595Z,66.03
2023-02-12T06:01:19.192Z,64.50
2023-02-12T06:03:46.272Z,60.70
2023-02-12T06:06:13.704Z,61.77
2023-02-12T06:08:40.798Z,54.50
2023-02-12T06:11:11.093Z,53.13
2023-02-12T06:13:37.959Z,52.97
2023-02-12T06:16:05.049Z,52.03
2023-02-12T06:18:31.970Z,51.40
2023-02-12T06:20:58.697Z,48.47
2023-02-12T06:23:25.616Z,47.93
2023-02-12T06:25:57.114Z,48.60
2023-02-12T06:28:24.404Z,45.07
2023-02-12T06:30:51.406Z,44.87
2023-02-12T06:33:18.251Z,42.70
2023-02-12T06:35:45.042Z,41.33
2023-02-12T06:38:12.389Z,39.20
2023-02-12T06:40:39.103Z,37.90
2023-02-12T06:43:05.878Z,33.57
2023-02-12T06:45:35.104Z,31.43
2023-02-12T06:48:02.262Z,28.97
2023-02-12T06:50:29.641Z,26.40
2023-02-12T06:52:57.975Z,27.97
2023-02-12T06:55:24.752Z,23.73
2023-02-12T06:57:51.502Z,24.83
2023-02-12T07:00:18.897Z,21.67
2023-02-12T07:02:45.597Z,25.83
2023-02-12T07:05:12.375Z,24.97
2023-02-12T07:07:39.086Z,23.13
2023-02-12T07:10:06.383Z,25.23
2023-02-12T07:12:33.804Z,36.50
2023-02-12T07:15:00.644Z,23.47
2023-02-12T07:17:30.142Z,27.00
2023-02-12T07:19:57.282Z,28.20
2023-02-12T07:22:24.016Z,58.10
2023-02-12T07:24:51.833Z,46.47
2023-02-12T07:27:18.598Z,34.17
2023-02-12T07:29:45.324Z,29.37
2023-02-12T07:32:12.842Z,29.17
2023-02-12T07:34:39.674Z,32.23
2023-02-12T07:37:07.500Z,32.03
2023-02-12T07:39:34.285Z,20.90
2023-02-12T07:42:01.092Z,25.67
2023-02-12T07:44:27.892Z,26.37
2023-02-12T07:46:54.673Z,23.97
2023-02-12T07:49:22.889Z,22.67
2023-02-12T07:51:50.373Z,19.40
2023-02-12T07:54:17.664Z,17.70
2023-02-12T07:56:46.861Z,16.77
2023-02-12T07:59:16.806Z,20.70
2023-02-12T08:01:49.828Z,17.10
2023-02-12T08:04:20.220Z,17.17
2023-02-12T08:06:50.283Z,16.43
2023-02-12T08:09:20.437Z,15.70
2023-02-12T08:11:47.518Z,14.90
2023-02-12T08:14:17.192Z,13.90
2023-02-12T08:16:52.421Z,12.63
2023-02-12T08:19:24.034Z,13.23
2023-02-12T08:21:53.701Z,15.50
2023-02-12T08:24:22.097Z,15.20
2023-02-12T08:26:49.073Z,15.13
2023-02-12T08:29:18.804Z,13.07
2023-02-12T08:31:48.236Z,13.80
2023-02-12T08:34:21.385Z,12.93
2023-02-12T08:36:49.771Z,13.83
2023-02-12T08:39:17.645Z,13.73
2023-02-12T08:41:45.279Z,16.10
2023-02-12T08:44:13.307Z,28.83
2023-02-12T08:46:48.526Z,28.83
2023-02-12T08:49:17.970Z,28.40
2023-02-12T08:51:50.443Z,33.70
2023-02-12T08:54:23.673Z,48.90
2023-02-12T08:56:54.196Z,46.23
2023-02-12T08:59:20.896Z,48.57
2023-02-12T09:01:51.101Z,51.17
2023-02-12T09:04:29.412Z,29.37
2023-02-12T09:06:56.346Z,47.27
2023-02-12T09:09:23.411Z,38.83
2023-02-12T09:11:50.482Z,12.30
2023-02-12T09:14:23.594Z,13.23
2023-02-12T09:16:52.715Z,8.77
2023-02-12T09:19:19.536Z,12.27
2023-02-12T09:21:50.206Z,11.87
2023-02-12T09:24:16.946Z,14.43
2023-02-12T09:26:43.676Z,12.13
2023-02-12T09:29:10.498Z,14.10
2023-02-12T09:31:37.339Z,9.97
2023-02-12T09:34:06.357Z,5.70
2023-02-12T09:36:34.093Z,5.47
2023-02-12T09:39:01.669Z,5.07
2023-02-12T09:42:05.863Z,9.33
2023-02-12T09:44:58.080Z,6.23
2023-02-12T09:47:42.263Z,5.83
2023-02-12T09:50:41.327Z,5.77
2023-02-12T09:53:19.237Z,3.97
2023-02-12T09:55:46.320Z,4.47
2023-02-12T09:58:23.424Z,3.87
2023-02-12T10:00:50.198Z,3.70
2023-02-12T10:03:18.121Z,3.10
2023-02-12T10:05:58.905Z,3.43
2023-02-12T10:08:39.557Z,2.67
2023-02-12T10:11:32.837Z,3.00
2023-02-12T10:14:24.064Z,2.73
2023-02-12T10:17:06.547Z,2.57
2023-02-12T10:20:09.489Z,2.70
2023-02-12T10:22:57.200Z,2.83
2023-02-12T10:25:41.255Z,2.80
2023-02-12T10:28:12.751Z,2.80
2023-02-12T10:30:55.099Z,2.37
2023-02-12T10:33:51.563Z,1.73
2023-02-12T10:36:36.794Z,1.80
2023-02-12T10:39:24.828Z,2.17
2023-02-12T10:41:54.640Z,1.40
2023-02-12T10:44:21.576Z,1.50
2023-02-12T10:46:48.389Z,1.70
2023-02-12T10:49:17.140Z,2.03
2023-02-12T10:52:02.264Z,1.43
2023-02-12T10:54:45.492Z,2.07
2023-02-12T10:57:31.015Z,2.60
2023-02-12T11:00:15.359Z,1.40
2023-02-12T11:03:25.628Z,1.97
2023-02-12T11:05:54.317Z,2.07
2023-02-12T11:08:37.539Z,1.90
2023-02-12T11:11:26.921Z,2.23
2023-02-12T11:14:04.574Z,2.33
2023-02-12T11:16:44.650Z,2.70
2023-02-12T11:19:41.503Z,2.43
2023-02-12T11:22:18.596Z,2.70
2023-02-12T11:24:47.076Z,3.57
2023-02-12T11:27:16.800Z,2.83
2023-02-12T11:29:46.825Z,3.63
2023-02-12T11:32:20.559Z,3.83
2023-02-12T11:35:14.133Z,4.57
2023-02-12T11:37:43.645Z,4.30
2023-02-12T11:40:21.274Z,5.30
2023-02-12T11:42:57.524Z,3.97
2023-02-12T11:45:47.522Z,3.73
2023-02-12T11:48:33.560Z,4.03
2023-02-12T11:51:03.482Z,4.97
2023-02-12T11:53:37.896Z,5.30
2023-02-12T11:56:08.466Z,5.37
2023-02-12T11:58:35.343Z,5.63
2023-02-12T12:01:20.709Z,4.70
2023-02-12T12:03:54.448Z,4.97
2023-02-12T12:06:24.001Z,4.90
2023-02-12T12:09:09.879Z,5.77
2023-02-12T12:12:13.581Z,5.87
2023-02-12T12:15:11.266Z,5.17
2023-02-12T12:18:20.374Z,6.13
2023-02-12T12:20:55.548Z,6.43
2023-02-12T12:23:30.034Z,5.13
2023-02-12T12:26:04.524Z,7.13
2023-02-12T12:28:43.154Z,6.70
2023-02-12T12:31:27.357Z,6.30
2023-02-12T12:34:06.223Z,6.33
2023-02-12T12:36:55.709Z,6.93
2023-02-12T12:39:41.295Z,8.60
2023-02-12T12:42:23.840Z,7.90
2023-02-12T12:45:05.158Z,8.97
2023-02-12T12:47:37.872Z,10.20
2023-02-12T12:50:31.971Z,8.67
2023-02-12T12:53:08.405Z,10.07
2023-02-12T12:55:40.919Z,9.50
2023-02-12T12:58:22.567Z,9.13
2023-02-12T13:01:24.703Z,8.43
2023-02-12T13:04:06.509Z,8.93
2023-02-12T13:06:41.475Z,10.47
2023-02-12T13:09:18.700Z,9.87
2023-02-12T13:11:45.383Z,7.37
2023-02-12T13:14:30.926Z,7.97
2023-02-12T13:17:13.769Z,7.13
2023-02-12T13:19:53.169Z,6.27
2023-02-12T13:23:01.382Z,6.23
2023-02-12T13:25:37.721Z,7.20
2023-02-12T13:28:05.886Z,6.50
2023-02-12T13:30:45.882Z,5.73
2023-02-12T13:33:23.498Z,5.13
2023-02-12T13:35:55.929Z,5.27
2023-02-12T13:38:30.939Z,5.23
2023-02-12T13:41:02.215Z,6.77
2023-02-12T13:44:21.534Z,5.50
2023-02-12T13:47:04.152Z,5.37
2023-02-12T13:49:51.211Z,6.17
2023-02-12T13:52:57.989Z,4.50
2023-02-12T13:55:37.449Z,4.90
2023-02-12T13:58:32.231Z,5.23
2023-02-12T14:01:01.644Z,5.00
2023-02-12T14:03:30.833Z,4.87
2023-02-12T14:06:20.632Z,5.37
2023-02-12T14:08:51.655Z,4.73
2023-02-12T14:11:22.129Z,4.97
2023-02-12T14:13:58.610Z,6.90
2023-02-12T14:16:31.451Z,7.80
2023-02-12T14:19:37.197Z,10.30
2023-02-12T14:22:12.075Z,14.90
2023-02-12T14:24:38.883Z,14.77
2023-02-12T14:27:30.537Z,14.40
2023-02-12T14:30:39.041Z,18.67
2023-02-12T14:33:06.812Z,14.83
2023-02-12T14:35:45.538Z,16.17
2023-02-12T14:38:12.247Z,16.73
2023-02-12T14:40:42.730Z,12.23
2023-02-12T14:43:29.021Z,14.47
2023-02-12T14:46:16.892Z,13.77
2023-02-12T14:49:05.611Z,14.40
2023-02-12T14:51:46.510Z,12.23
2023-02-12T14:54:21.489Z,12.40
2023-02-12T14:56:50.681Z,11.37
2023-02-12T14:59:21.319Z,9.57
2023-02-12T15:01:50.188Z,9.00
2023-02-12T15:04:31.691Z,10.93
2023-02-12T15:07:08.330Z,10.07
2023-02-12T15:10:10.042Z,10.70
2023-02-12T15:12:45.670Z,12.20
2023-02-12T15:15:27.356Z,12.17
2023-02-12T15:18:00.050Z,11.03
2023-02-12T15:20:59.194Z,12.80
2023-02-12T15:23:39.233Z,12.87
2023-02-12T15:26:11.802Z,14.17
2023-02-12T15:28:40.534Z,13.57
2023-02-12T15:31:10.892Z,14.63
2023-02-12T15:33:46.683Z,13.57
2023-02-12T15:36:18.552Z,14.20
2023-02-12T15:38:50.542Z,12.10
2023-02-12T15:41:32.680Z,15.43
2023-02-12T15:44:24.070Z,14.80
2023-02-12T15:47:12.382Z,14.97
2023-02-12T15:49:41.584Z,14.50
2023-02-12T15:52:17.517Z,15.83
2023-02-12T15:54:45.924Z,14.43
2023-02-12T15:57:19.173Z,17.83
2023-02-12T15:59:53.695Z,16.07
2023-02-12T16:02:30.487Z,14.73
2023-02-12T16:04:58.407Z,13.87
2023-02-12T16:07:31.955Z,14.83
2023-02-12T16:09:58.842Z,14.57
2023-02-12T16:12:30.554Z,14.10
2023-02-12T16:15:00.442Z,13.83
2023-02-12T16:17:27.174Z,14.57
2023-02-12T16:19:56.639Z,12.77
2023-02-12T16:22:34.146Z,14.90
2023-02-12T16:25:02.242Z,14.87
2023-02-12T16:27:32.949Z,13.13
2023-02-12T16:30:03.574Z,12.73
2023-02-12T16:32:39.184Z,15.17
2023-02-12T16:35:11.974Z,13.83
2023-02-12T16:37:38.707Z,14.40
2023-02-12T16:40:15.446Z,14.00
2023-02-12T16:42:48.265Z,14.73
2023-02-12T16:45:34.162Z,12.20
2023-02-12T16:48:05.133Z,13.80
2023-02-12T16:50:34.127Z,13.47
2023-02-12T16:53:33.380Z,14.30
2023-02-12T16:56:02.532Z,14.43
2023-02-12T16:58:29.456Z,13.50
2023-02-12T17:00:57.822Z,10.87
2023-02-12T17:03:25.732Z,12.83
2023-02-12T17:05:52.710Z,11.90
2023-02-12T17:08:24.085Z,10.83
2023-02-12T17:10:51.249Z,12.33
2023-02-12T17:13:20.744Z,11.50
2023-02-12T17:15:55.394Z,11.27
2023-02-12T17:18:23.497Z,12.53
2023-02-12T17:20:56.983Z,13.40
2023-02-12T17:23:24.592Z,12.00
2023-02-12T17:25:51.602Z,12.67
2023-02-12T17:28:18.422Z,13.10
2023-02-12T17:30:45.403Z,12.03
2023-02-12T17:33:12.366Z,12.13
2023-02-12T17:35:39.435Z,11.90
2023-02-12T17:38:06.843Z,10.73
2023-02-12T17:40:36.505Z,13.90
2023-02-12T17:43:04.501Z,13.13
2023-02-12T17:45:31.913Z,13.23
2023-02-12T17:47:59.084Z,12.20
2023-02-12T17:50:26.212Z,13.27
2023-02-12T17:52:53.083Z,13.67
2023-02-12T17:55:19.893Z,13.13
2023-02-12T17:57:46.615Z,12.47
2023-02-12T18:00:14.337Z,12.77
2023-02-12T18:02:41.104Z,12.53
2023-02-12T18:05:08.698Z,13.07
2023-02-12T18:07:36.215Z,11.73
2023-02-12T18:10:05.209Z,13.13
2023-02-12T18:12:33.306Z,13.37
2023-02-12T18:15:02.183Z,12.67
2023-02-12T18:17:29.411Z,13.83
2023-02-12T18:19:56.685Z,11.77
2023-02-12T18:22:36.964Z,13.30
2023-02-12T18:25:10.516Z,12.50
2023-02-12T18:27:42.831Z,11.30
2023-02-12T18:30:11.680Z,12.87
2023-02-12T18:32:38.408Z,15.10
2023-02-12T18:35:06.321Z,12.17
2023-02-12T18:37:34.108Z,14.80
2023-02-12T18:40:00.937Z,12.83
2023-02-12T18:42:28.607Z,13.23
2023-02-12T18:44:55.382Z,13.87
2023-02-12T18:47:22.111Z,13.20
2023-02-12T18:49:48.853Z,13.83
2023-02-12T18:52:15.660Z,12.07
2023-02-12T18:54:44.444Z,13.50
2023-02-12T18:57:11.358Z,15.13
2023-02-12T18:59:38.128Z,14.37
2023-02-12T19:02:05.933Z,12.60
2023-02-12T19:04:33.149Z,14.93
2023-02-12T19:07:00.073Z,14.00
2023-02-12T19:09:27.216Z,14.30
2023-02-12T19:11:57.295Z,14.07
2023-02-12T19:14:25.507Z,15.60
2023-02-12T19:16:52.862Z,15.17
2023-02-12T19:19:23.719Z,17.30
2023-02-12T19:21:50.798Z,14.07
2023-02-12T19:24:17.961Z,16.90
2023-02-12T19:26:45.455Z,18.93
2023-02-12T19:29:13.514Z,18.20
2023-02-12T19:31:43.728Z,18.70
2023-02-12T19:34:19.653Z,19.73
2023-02-12T19:36:47.858Z,17.23
2023-02-12T19:39:18.719Z,16.80
2023-02-12T19:41:46.916Z,18.73
2023-02-12T19:44:19.756Z,17.73
2023-02-12T19:46:48.151Z,17.90
2023-02-12T19:49:21.536Z,18.07
2023-02-12T19:51:48.932Z,18.17
2023-02-12T19:54:17.333Z,18.03
2023-02-12T19:56:46.380Z,19.67
2023-02-12T19:59:19.742Z,20.00
2023-02-12T20:01:48.143Z,16.57
2023-02-12T20:04:17.608Z,18.80
2023-02-12T20:06:49.018Z,16.90
2023-02-12T20:09:15.772Z,17.70
2023-02-12T20:11:42.720Z,18.90
2023-02-12T20:14:11.744Z,16.63
2023-02-12T20:16:41.615Z,17.87
2023-02-12T20:19:16.598Z,17.27
2023-02-12T20:21:43.678Z,19.47
2023-02-12T20:24:10.495Z,18.50
2023-02-12T20:26:38.467Z,17.60
2023-02-12T20:29:05.736Z,16.53
2023-02-12T20:31:35.884Z,16.47
2023-02-12T20:34:08.623Z,16.73
2023-02-12T20:36:38.200Z,18.20
2023-02-12T20:39:06.723Z,17.47
2023-02-12T20:41:36.969Z,16.77
2023-02-12T20:44:05.316Z,15.00
2023-02-12T20:46:32.155Z,16.47
2023-02-12T20:48:58.868Z,15.77
2023-02-12T20:51:27.534Z,14.20
2023-02-12T20:53:55.544Z,16.60
2023-02-12T20:56:28.018Z,16.40
2023-02-12T20:58:54.898Z,14.77
2023-02-12T21:01:29.262Z,14.77
2023-02-12T21:03:56.200Z,16.03
2023-02-12T21:06:24.576Z,14.87
2023-02-12T21:08:51.581Z,15.23
2023-02-12T21:11:24.513Z,13.67
2023-02-12T21:13:59.231Z,13.83
2023-02-12T21:16:35.558Z,12.60
2023-02-12T21:19:02.611Z,14.23
2023-02-12T21:21:32.549Z,12.23
2023-02-12T21:24:00.577Z,14.07
2023-02-12T21:26:29.432Z,11.33
2023-02-12T21:28:57.739Z,12.17
2023-02-12T21:31:27.419Z,13.90
2023-02-12T21:33:55.832Z,13.13
2023-02-12T21:36:34.923Z,14.53
2023-02-12T21:39:02.601Z,13.30
2023-02-12T21:41:31.906Z,14.37
2023-02-12T21:44:05.508Z,12.37
2023-02-12T21:46:33.248Z,14.23
2023-02-12T21:49:00.123Z,14.13
2023-02-12T21:51:30.007Z,14.57
2023-02-12T21:54:02.372Z,15.13
2023-02-12T21:56:29.719Z,15.10
2023-02-12T21:58:58.946Z,14.53
2023-02-12T22:01:32.341Z,15.50
2023-02-12T22:04:01.877Z,13.17
2023-02-12T22:06:28.901Z,15.13
2023-02-12T22:09:00.610Z,14.63
2023-02-12T22:11:27.622Z,13.97
2023-02-12T22:13:54.432Z,15.63
2023-02-12T22:16:24.577Z,15.57
2023-02-12T22:18:55.377Z,17.03
2023-02-12T22:21:23.770Z,16.50
2023-02-12T22:23:51.454Z,19.03
2023-02-12T22:26:21.069Z,18.23
2023-02-12T22:28:56.888Z,18.33
2023-02-12T22:31:28.506Z,17.43
2023-02-12T22:33:58.043Z,18.77
2023-02-12T22:36:26.155Z,17.20
2023-02-12T22:38:54.534Z,19.47
2023-02-12T22:41:22.093Z,19.70
2023-02-12T22:43:49.381Z,20.00
2023-02-12T22:46:17.120Z,17.30
2023-02-12T22:48:44.378Z,16.80
2023-02-12T22:51:23.441Z,20.90
2023-02-12T22:53:50.357Z,20.13
2023-02-12T22:56:17.165Z,23.13
2023-02-12T22:58:44.501Z,22.10
2023-02-12T23:01:14.622Z,24.43
2023-02-12T23:03:42.224Z,21.63
2023-02-12T23:06:12.786Z,22.73
2023-02-12T23:08:40.062Z,23.87
2023-02-12T23:11:08.598Z,24.10
2023-02-12T23:13:36.331Z,23.60
2023-02-12T23:16:04.071Z,24.50
2023-02-12T23:18:31.041Z,25.60
2023-02-12T23:20:58.198Z,28.27
2023-02-12T23:23:25.249Z,25.93
2023-02-12T23:25:53.891Z,29.20
2023-02-12T23:28:21.441Z,31.97
2023-02-12T23:30:49.296Z,29.80
2023-02-12T23:33:16.109Z,32.90
2023-02-12T23:35:44.519Z,30.07
2023-02-12T23:38:11.895Z,34.07
2023-02-12T23:40:39.213Z,32.17
2023-02-12T23:43:06.053Z,31.40
2023-02-12T23:45:32.858Z,32.70
2023-02-12T23:47:59.634Z,35.27
2023-02-12T23:50:26.461Z,31.93
2023-02-12T23:52:53.281Z,31.60
2023-02-12T23:55:20.292Z,30.97
2023-02-12T23:57:49.657Z,32.70
